sensor_id;sensor_type;location;lat;lon;timestamp;pressure;altitude;pressure_sealevel;temperature;humidity
74975;BME280;68459;50.836;19.138;2023-04-20T00:00:30;98841.72;;;7.56;75.09
74975;BME280;68459;50.836;19.138;2023-04-20T00:03:49;98840.69;;;7.57;75.70
74975;BME280;68459;50.836;19.138;2023-04-20T00:06:54;98840.69;;;7.57;75.47
74975;BME280;68459;50.836;19.138;2023-04-20T00:10:01;98837.38;;;7.55;75.26
74975;BME280;68459;50.836;19.138;2023-04-20T00:13:05;98836.53;;;7.55;74.97
74975;BME280;68459;50.836;19.138;2023-04-20T00:16:09;98835.72;;;7.54;75.27
74975;BME280;68459;50.836;19.138;2023-04-20T00:19:13;98834.06;;;7.53;74.91
74975;BME280;68459;50.836;19.138;2023-04-20T00:22:17;98838.41;;;7.54;74.93
74975;BME280;68459;50.836;19.138;2023-04-20T00:25:22;98837.56;;;7.54;75.23
74975;BME280;68459;50.836;19.138;2023-04-20T00:28:25;98828.69;;;7.53;75.23
74975;BME280;68459;50.836;19.138;2023-04-20T00:31:30;98827.66;;;7.54;75.43
74975;BME280;68459;50.836;19.138;2023-04-20T00:34:34;98821.28;;;7.55;75.33
74975;BME280;68459;50.836;19.138;2023-04-20T00:37:38;98825.59;;;7.56;75.64
74975;BME280;68459;50.836;19.138;2023-04-20T00:40:43;98819.41;;;7.56;75.58
74975;BME280;68459;50.836;19.138;2023-04-20T00:43:50;98821.06;;;7.57;75.53
74975;BME280;68459;50.836;19.138;2023-04-20T00:46:54;98828.94;;;7.58;75.10
74975;BME280;68459;50.836;19.138;2023-04-20T00:50:00;98822.72;;;7.58;75.00
74975;BME280;68459;50.836;19.138;2023-04-20T00:53:05;98823.75;;;7.57;75.64
74975;BME280;68459;50.836;19.138;2023-04-20T00:56:12;98821.91;;;7.57;75.61
74975;BME280;68459;50.836;19.138;2023-04-20T00:59:17;98823.34;;;7.60;75.44
74975;BME280;68459;50.836;19.138;2023-04-20T01:02:21;98821.47;;;7.60;75.64
74975;BME280;68459;50.836;19.138;2023-04-20T01:05:25;98816.09;;;7.60;75.78
74975;BME280;68459;50.836;19.138;2023-04-20T01:08:29;98816.94;;;7.61;75.54
74975;BME280;68459;50.836;19.138;2023-04-20T01:11:34;98822.09;;;7.62;75.86
74975;BME280;68459;50.836;19.138;2023-04-20T01:14:39;98818.78;;;7.60;75.28
74975;BME280;68459;50.836;19.138;2023-04-20T01:17:42;98815.50;;;7.58;75.62
74975;BME280;68459;50.836;19.138;2023-04-20T01:20:47;98812.59;;;7.60;75.88
74975;BME280;68459;50.836;19.138;2023-04-20T01:23:52;98814.44;;;7.59;75.39
74975;BME280;68459;50.836;19.138;2023-04-20T01:26:55;98810.34;;;7.57;75.90
74975;BME280;68459;50.836;19.138;2023-04-20T01:29:59;98814.69;;;7.58;75.28
74975;BME280;68459;50.836;19.138;2023-04-20T01:33:04;98810.13;;;7.58;75.81
74975;BME280;68459;50.836;19.138;2023-04-20T01:36:08;98807.47;;;7.58;76.04
74975;BME280;68459;50.836;19.138;2023-04-20T01:39:15;98809.50;;;7.56;76.23
74975;BME280;68459;50.836;19.138;2023-04-20T01:42:21;98806.81;;;7.56;76.37
74975;BME280;68459;50.836;19.138;2023-04-20T01:45:25;98812.19;;;7.56;76.05
74975;BME280;68459;50.836;19.138;2023-04-20T01:48:28;98809.50;;;7.56;76.25
74975;BME280;68459;50.836;19.138;2023-04-20T01:51:32;98805.59;;;7.59;76.12
74975;BME280;68459;50.836;19.138;2023-04-20T01:54:37;98812.41;;;7.61;76.36
74975;BME280;68459;50.836;19.138;2023-04-20T01:57:41;98818.19;;;7.65;76.28
74975;BME280;68459;50.836;19.138;2023-04-20T02:00:45;98812.84;;;7.65;75.90
74975;BME280;68459;50.836;19.138;2023-04-20T02:03:49;98805.59;;;7.65;76.36
74975;BME280;68459;50.836;19.138;2023-04-20T02:06:55;98815.94;;;7.68;76.34
74975;BME280;68459;50.836;19.138;2023-04-20T02:10:00;98807.50;;;7.71;76.13
74975;BME280;68459;50.836;19.138;2023-04-20T02:13:04;98813.91;;;7.70;75.96
74975;BME280;68459;50.836;19.138;2023-04-20T02:16:07;98808.53;;;7.70;76.07
74975;BME280;68459;50.836;19.138;2023-04-20T02:19:11;98808.53;;;7.70;75.68
74975;BME280;68459;50.836;19.138;2023-04-20T02:22:15;98814.91;;;7.69;76.01
74975;BME280;68459;50.836;19.138;2023-04-20T02:25:20;98815.13;;;7.68;75.73
74975;BME280;68459;50.836;19.138;2023-04-20T02:28:24;98812.63;;;7.66;76.50
74975;BME280;68459;50.836;19.138;2023-04-20T02:31:28;98809.94;;;7.66;75.98
74975;BME280;68459;50.836;19.138;2023-04-20T02:34:32;98810.16;;;7.65;76.51
74975;BME280;68459;50.836;19.138;2023-04-20T02:37:35;98819.03;;;7.65;76.61
74975;BME280;68459;50.836;19.138;2023-04-20T02:40:40;98816.16;;;7.67;76.35
74975;BME280;68459;50.836;19.138;2023-04-20T02:43:44;98822.34;;;7.67;76.05
74975;BME280;68459;50.836;19.138;2023-04-20T02:46:48;98817.38;;;7.64;76.70
74975;BME280;68459;50.836;19.138;2023-04-20T02:49:53;98820.88;;;7.65;76.44
74975;BME280;68459;50.836;19.138;2023-04-20T02:52:59;98815.72;;;7.63;76.54
74975;BME280;68459;50.836;19.138;2023-04-20T02:56:07;98825.44;;;7.64;76.42
74975;BME280;68459;50.836;19.138;2023-04-20T02:59:18;98817.19;;;7.66;76.40
74975;BME280;68459;50.836;19.138;2023-04-20T03:02:45;98822.97;;;7.69;76.55
74975;BME280;68459;50.836;19.138;2023-04-20T03:05:49;98812.03;;;7.71;76.72
74975;BME280;68459;50.836;19.138;2023-04-20T03:08:52;98815.56;;;7.71;76.51
74975;BME280;68459;50.836;19.138;2023-04-20T03:12:30;98813.91;;;7.70;76.66
74975;BME280;68459;50.836;19.138;2023-04-20T03:15:54;98820.28;;;7.69;76.62
74975;BME280;68459;50.836;19.138;2023-04-20T03:19:30;98816.97;;;7.67;76.15
74975;BME280;68459;50.836;19.138;2023-04-20T03:22:34;98820.69;;;7.66;76.93
74975;BME280;68459;50.836;19.138;2023-04-20T03:25:38;98823.38;;;7.66;76.66
74975;BME280;68459;50.836;19.138;2023-04-20T03:28:50;98822.75;;;7.64;77.17
74975;BME280;68459;50.836;19.138;2023-04-20T03:31:58;98822.09;;;7.62;76.23
74975;BME280;68459;50.836;19.138;2023-04-20T03:35:02;98832.66;;;7.64;76.97
74975;BME280;68459;50.836;19.138;2023-04-20T03:38:06;98828.94;;;7.65;76.98
74975;BME280;68459;50.836;19.138;2023-04-20T03:41:10;98828.75;;;7.66;76.95
74975;BME280;68459;50.836;19.138;2023-04-20T03:44:16;98833.28;;;7.66;76.66
74975;BME280;68459;50.836;19.138;2023-04-20T03:47:19;98843.81;;;7.67;76.56
74975;BME280;68459;50.836;19.138;2023-04-20T03:50:24;98834.75;;;7.68;76.98
74975;BME280;68459;50.836;19.138;2023-04-20T03:53:28;98839.28;;;7.68;76.60
74975;BME280;68459;50.836;19.138;2023-04-20T03:56:32;98844.44;;;7.69;76.73
74975;BME280;68459;50.836;19.138;2023-04-20T03:59:37;98843.81;;;7.67;77.06
74975;BME280;68459;50.836;19.138;2023-04-20T04:02:42;98847.13;;;7.69;76.54
74975;BME280;68459;50.836;19.138;2023-04-20T04:05:46;98845.91;;;7.72;76.99
74975;BME280;68459;50.836;19.138;2023-04-20T04:08:50;98858.09;;;7.74;76.67
74975;BME280;68459;50.836;19.138;2023-04-20T04:11:54;98863.25;;;7.76;76.69
74975;BME280;68459;50.836;19.138;2023-04-20T04:15:00;98850.03;;;7.74;76.84
74975;BME280;68459;50.836;19.138;2023-04-20T04:18:08;98865.13;;;7.75;76.66
74975;BME280;68459;50.836;19.138;2023-04-20T04:21:13;98849.63;;;7.77;76.98
74975;BME280;68459;50.836;19.138;2023-04-20T04:24:23;98858.31;;;7.79;77.13
74975;BME280;68459;50.836;19.138;2023-04-20T04:27:37;98846.56;;;7.80;76.62
74975;BME280;68459;50.836;19.138;2023-04-20T04:30:43;98851.72;;;7.82;77.33
74975;BME280;68459;50.836;19.138;2023-04-20T04:33:47;98850.50;;;7.84;77.18
74975;BME280;68459;50.836;19.138;2023-04-20T04:37:09;98851.09;;;7.86;77.25
74975;BME280;68459;50.836;19.138;2023-04-20T04:40:18;98846.78;;;7.85;77.32
74975;BME280;68459;50.836;19.138;2023-04-20T04:43:26;98854.63;;;7.87;76.72
74975;BME280;68459;50.836;19.138;2023-04-20T04:46:58;98853.59;;;7.88;77.21
74975;BME280;68459;50.836;19.138;2023-04-20T04:50:05;98857.75;;;7.91;77.20
74975;BME280;68459;50.836;19.138;2023-04-20T04:53:10;98861.88;;;7.93;77.23
74975;BME280;68459;50.836;19.138;2023-04-20T04:56:14;98856.31;;;7.95;77.02
74975;BME280;68459;50.836;19.138;2023-04-20T04:59:19;98862.50;;;7.95;76.90
74975;BME280;68459;50.836;19.138;2023-04-20T05:02:24;98869.34;;;7.98;77.47
74975;BME280;68459;50.836;19.138;2023-04-20T05:05:28;98864.19;;;8.03;76.99
74975;BME280;68459;50.836;19.138;2023-04-20T05:08:32;98865.88;;;8.10;77.09
74975;BME280;68459;50.836;19.138;2023-04-20T05:11:36;98878.69;;;8.15;76.30
74975;BME280;68459;50.836;19.138;2023-04-20T05:14:40;98877.25;;;8.19;77.02
74975;BME280;68459;50.836;19.138;2023-04-20T05:17:45;98881.19;;;8.23;76.80
74975;BME280;68459;50.836;19.138;2023-04-20T05:20:51;98887.41;;;8.30;76.21
74975;BME280;68459;50.836;19.138;2023-04-20T05:23:54;98882.47;;;8.34;76.53
74975;BME280;68459;50.836;19.138;2023-04-20T05:26:58;98890.97;;;8.37;76.90
74975;BME280;68459;50.836;19.138;2023-04-20T05:30:02;98887.84;;;8.40;76.70
74975;BME280;68459;50.836;19.138;2023-04-20T05:33:23;98895.72;;;8.42;76.66
74975;BME280;68459;50.836;19.138;2023-04-20T05:36:27;98905.63;;;8.41;76.08
74975;BME280;68459;50.836;19.138;2023-04-20T05:39:32;98898.41;;;8.42;76.69
74975;BME280;68459;50.836;19.138;2023-04-20T05:42:35;98904.63;;;8.42;76.36
74975;BME280;68459;50.836;19.138;2023-04-20T05:45:39;98894.88;;;8.41;76.19
74975;BME280;68459;50.836;19.138;2023-04-20T05:48:44;98893.66;;;8.44;76.47
74975;BME280;68459;50.836;19.138;2023-04-20T05:51:48;98896.16;;;8.45;76.44
74975;BME280;68459;50.836;19.138;2023-04-20T05:54:53;98900.09;;;8.49;76.55
74975;BME280;68459;50.836;19.138;2023-04-20T05:57:56;98893.06;;;8.55;76.71
74975;BME280;68459;50.836;19.138;2023-04-20T06:01:00;98900.31;;;8.61;76.17
74975;BME280;68459;50.836;19.138;2023-04-20T06:04:06;98899.06;;;8.70;76.67
74975;BME280;68459;50.836;19.138;2023-04-20T06:07:10;98893.50;;;8.78;76.25
74975;BME280;68459;50.836;19.138;2023-04-20T06:10:14;98886.88;;;8.87;76.35
74975;BME280;68459;50.836;19.138;2023-04-20T06:13:18;98896.19;;;8.98;76.27
74975;BME280;68459;50.836;19.138;2023-04-20T06:16:22;98895.97;;;9.13;76.01
74975;BME280;68459;50.836;19.138;2023-04-20T06:19:27;98893.69;;;9.23;75.03
74975;BME280;68459;50.836;19.138;2023-04-20T06:22:31;98899.47;;;9.40;75.52
74975;BME280;68459;50.836;19.138;2023-04-20T06:25:35;98899.81;;;9.63;75.34
74975;BME280;68459;50.836;19.138;2023-04-20T06:28:38;98899.56;;;9.84;74.89
74975;BME280;68459;50.836;19.138;2023-04-20T06:31:42;98902.97;;;10.05;74.95
74975;BME280;68459;50.836;19.138;2023-04-20T06:34:47;98902.31;;;10.22;75.03
74975;BME280;68459;50.836;19.138;2023-04-20T06:37:52;98903.91;;;10.30;74.33
74975;BME280;68459;50.836;19.138;2023-04-20T06:40:59;98907.84;;;10.34;74.45
74975;BME280;68459;50.836;19.138;2023-04-20T06:44:03;98905.94;;;10.41;73.51
74975;BME280;68459;50.836;19.138;2023-04-20T06:47:07;98917.53;;;10.48;74.25
74975;BME280;68459;50.836;19.138;2023-04-20T06:50:12;98919.53;;;10.53;73.73
74975;BME280;68459;50.836;19.138;2023-04-20T06:53:16;98913.94;;;10.54;73.61
74975;BME280;68459;50.836;19.138;2023-04-20T06:56:20;98915.38;;;10.57;73.74
74975;BME280;68459;50.836;19.138;2023-04-20T06:59:23;98912.88;;;10.62;73.38
74975;BME280;68459;50.836;19.138;2023-04-20T07:02:27;98919.31;;;10.61;73.27
74975;BME280;68459;50.836;19.138;2023-04-20T07:05:32;98919.31;;;10.61;73.40
74975;BME280;68459;50.836;19.138;2023-04-20T07:08:38;98915.50;;;10.68;73.35
74975;BME280;68459;50.836;19.138;2023-04-20T07:11:42;98915.84;;;10.79;73.01
74975;BME280;68459;50.836;19.138;2023-04-20T07:14:46;98918.72;;;10.84;72.99
74975;BME280;68459;50.836;19.138;2023-04-20T07:17:49;98912.47;;;10.90;72.73
74975;BME280;68459;50.836;19.138;2023-04-20T07:20:54;98922.53;;;11.01;72.10
74975;BME280;68459;50.836;19.138;2023-04-20T07:23:58;98918.09;;;11.13;72.94
74975;BME280;68459;50.836;19.138;2023-04-20T07:27:02;98924.81;;;11.29;71.92
74975;BME280;68459;50.836;19.138;2023-04-20T07:30:07;98926.16;;;11.38;72.09
74975;BME280;68459;50.836;19.138;2023-04-20T07:33:13;98923.56;;;11.50;71.58
74975;BME280;68459;50.836;19.138;2023-04-20T07:36:18;98922.47;;;11.57;71.94
74975;BME280;68459;50.836;19.138;2023-04-20T07:39:23;98930.25;;;11.65;71.71
74975;BME280;68459;50.836;19.138;2023-04-20T07:42:31;98928.28;;;11.79;71.79
74975;BME280;68459;50.836;19.138;2023-04-20T07:45:38;98926.16;;;11.99;70.98
74975;BME280;68459;50.836;19.138;2023-04-20T07:48:42;98925.88;;;12.07;70.56
74975;BME280;68459;50.836;19.138;2023-04-20T07:51:47;98930.66;;;12.24;70.95
74975;BME280;68459;50.836;19.138;2023-04-20T07:54:50;98923.13;;;12.26;71.19
74975;BME280;68459;50.836;19.138;2023-04-20T07:57:55;98928.00;;;12.35;70.40
74975;BME280;68459;50.836;19.138;2023-04-20T08:00:59;98934.06;;;12.49;70.05
74975;BME280;68459;50.836;19.138;2023-04-20T08:04:03;98932.78;;;12.52;70.30
74975;BME280;68459;50.836;19.138;2023-04-20T08:07:09;98931.28;;;12.67;69.78
74975;BME280;68459;50.836;19.138;2023-04-20T08:10:13;98942.41;;;12.77;69.29
74975;BME280;68459;50.836;19.138;2023-04-20T08:13:16;98943.84;;;12.92;69.34
74975;BME280;68459;50.836;19.138;2023-04-20T08:16:20;98936.84;;;13.14;69.51
74975;BME280;68459;50.836;19.138;2023-04-20T08:19:25;98937.34;;;13.34;68.44
74975;BME280;68459;50.836;19.138;2023-04-20T08:22:30;98943.59;;;13.46;68.33
74975;BME280;68459;50.836;19.138;2023-04-20T08:25:34;98943.50;;;13.65;68.31
74975;BME280;68459;50.836;19.138;2023-04-20T08:28:41;98950.44;;;13.84;67.70
74975;BME280;68459;50.836;19.138;2023-04-20T08:31:46;98947.84;;;13.89;67.48
74975;BME280;68459;50.836;19.138;2023-04-20T08:34:52;98945.94;;;14.01;67.24
74975;BME280;68459;50.836;19.138;2023-04-20T08:37:58;98952.88;;;14.09;66.91
74975;BME280;68459;50.836;19.138;2023-04-20T08:41:02;98946.41;;;14.10;67.07
74975;BME280;68459;50.836;19.138;2023-04-20T08:44:06;98950.88;;;14.04;66.47
74975;BME280;68459;50.836;19.138;2023-04-20T08:47:10;98951.97;;;13.91;67.07
74975;BME280;68459;50.836;19.138;2023-04-20T08:50:15;98945.00;;;13.96;66.90
74975;BME280;68459;50.836;19.138;2023-04-20T08:53:20;98937.56;;;13.91;66.67
74975;BME280;68459;50.836;19.138;2023-04-20T08:56:32;98941.13;;;13.80;66.86
74975;BME280;68459;50.836;19.138;2023-04-20T08:59:37;98953.88;;;13.68;66.76
74975;BME280;68459;50.836;19.138;2023-04-20T09:02:50;98951.88;;;13.51;66.58
74975;BME280;68459;50.836;19.138;2023-04-20T09:05:56;98951.50;;;13.36;67.24
74975;BME280;68459;50.836;19.138;2023-04-20T09:09:09;98943.28;;;13.31;66.40
74975;BME280;68459;50.836;19.138;2023-04-20T09:12:13;98958.09;;;13.17;66.93
74975;BME280;68459;50.836;19.138;2023-04-20T09:15:27;98956.13;;;13.06;66.80
74975;BME280;68459;50.836;19.138;2023-04-20T09:18:31;98959.63;;;12.95;67.09
74975;BME280;68459;50.836;19.138;2023-04-20T09:21:35;98958.31;;;12.85;67.51
74975;BME280;68459;50.836;19.138;2023-04-20T09:24:40;98958.69;;;12.89;67.08
74975;BME280;68459;50.836;19.138;2023-04-20T09:27:54;98957.97;;;12.94;67.31
74975;BME280;68459;50.836;19.138;2023-04-20T09:30:59;98969.75;;;12.88;67.61
74975;BME280;68459;50.836;19.138;2023-04-20T09:34:03;98959.81;;;12.81;67.17
74975;BME280;68459;50.836;19.138;2023-04-20T09:37:08;98954.19;;;12.83;66.99
74975;BME280;68459;50.836;19.138;2023-04-20T09:40:14;98962.91;;;12.85;66.53
74975;BME280;68459;50.836;19.138;2023-04-20T09:43:19;98969.84;;;12.93;66.83
74975;BME280;68459;50.836;19.138;2023-04-20T09:46:28;98961.53;;;13.06;66.96
74975;BME280;68459;50.836;19.138;2023-04-20T09:49:33;98968.19;;;13.22;66.39
74975;BME280;68459;50.836;19.138;2023-04-20T09:52:38;98964.44;;;13.34;66.64
74975;BME280;68459;50.836;19.138;2023-04-20T09:55:45;98973.78;;;13.50;65.47
74975;BME280;68459;50.836;19.138;2023-04-20T09:58:50;98970.59;;;13.65;65.83
74975;BME280;68459;50.836;19.138;2023-04-20T10:01:54;98968.25;;;13.80;65.35
74975;BME280;68459;50.836;19.138;2023-04-20T10:04:58;98960.56;;;13.88;65.04
74975;BME280;68459;50.836;19.138;2023-04-20T10:08:04;98961.03;;;13.97;64.87
74975;BME280;68459;50.836;19.138;2023-04-20T10:11:10;98968.91;;;13.99;64.60
74975;BME280;68459;50.836;19.138;2023-04-20T10:14:15;98960.19;;;14.08;64.63
74975;BME280;68459;50.836;19.138;2023-04-20T10:17:28;98960.84;;;14.50;64.70
74975;BME280;68459;50.836;19.138;2023-04-20T10:20:33;98952.94;;;14.77;63.93
74975;BME280;68459;50.836;19.138;2023-04-20T10:23:46;98962.03;;;15.16;63.31
74975;BME280;68459;50.836;19.138;2023-04-20T10:26:52;98952.00;;;15.50;62.90
74975;BME280;68459;50.836;19.138;2023-04-20T10:29:56;98948.47;;;15.66;62.24
74975;BME280;68459;50.836;19.138;2023-04-20T10:33:11;98944.34;;;16.02;61.94
74975;BME280;68459;50.836;19.138;2023-04-20T10:36:22;98948.34;;;16.17;60.93
74975;BME280;68459;50.836;19.138;2023-04-20T10:39:27;98941.06;;;16.22;61.01
74975;BME280;68459;50.836;19.138;2023-04-20T10:42:42;98945.31;;;16.35;61.38
74975;BME280;68459;50.836;19.138;2023-04-20T10:45:47;98945.75;;;16.49;60.87
74975;BME280;68459;50.836;19.138;2023-04-20T10:48:53;98937.88;;;16.52;60.49
74975;BME280;68459;50.836;19.138;2023-04-20T10:51:57;98944.25;;;16.85;60.36
74975;BME280;68459;50.836;19.138;2023-04-20T10:55:01;98935.47;;;17.36;59.67
74975;BME280;68459;50.836;19.138;2023-04-20T10:58:07;98922.81;;;17.57;59.05
74975;BME280;68459;50.836;19.138;2023-04-20T11:01:10;98930.00;;;17.73;57.95
74975;BME280;68459;50.836;19.138;2023-04-20T11:04:14;98926.50;;;17.78;57.67
74975;BME280;68459;50.836;19.138;2023-04-20T11:07:20;98927.47;;;18.04;58.26
74975;BME280;68459;50.836;19.138;2023-04-20T11:10:36;98929.25;;;18.35;56.72
74975;BME280;68459;50.836;19.138;2023-04-20T11:13:42;98935.97;;;18.12;55.84
74975;BME280;68459;50.836;19.138;2023-04-20T11:16:50;98926.19;;;17.74;57.49
74975;BME280;68459;50.836;19.138;2023-04-20T11:20:03;98926.63;;;17.61;57.93
74975;BME280;68459;50.836;19.138;2023-04-20T11:23:11;98930.28;;;17.72;57.84
74975;BME280;68459;50.836;19.138;2023-04-20T11:26:15;98928.97;;;17.85;56.83
74975;BME280;68459;50.836;19.138;2023-04-20T11:29:31;98927.38;;;17.89;56.65
74975;BME280;68459;50.836;19.138;2023-04-20T11:32:36;98928.44;;;17.83;57.53
74975;BME280;68459;50.836;19.138;2023-04-20T11:35:41;98927.88;;;17.80;57.44
74975;BME280;68459;50.836;19.138;2023-04-20T11:38:45;98929.22;;;17.78;57.18
74975;BME280;68459;50.836;19.138;2023-04-20T11:41:49;98928.38;;;17.72;57.22
74975;BME280;68459;50.836;19.138;2023-04-20T11:44:55;98929.03;;;17.90;56.80
74975;BME280;68459;50.836;19.138;2023-04-20T11:47:58;98919.09;;;18.26;56.41
74975;BME280;68459;50.836;19.138;2023-04-20T11:51:02;98926.59;;;18.50;55.99
74975;BME280;68459;50.836;19.138;2023-04-20T11:54:06;98922.31;;;18.75;54.75
74975;BME280;68459;50.836;19.138;2023-04-20T11:57:10;98918.22;;;18.93;53.89
74975;BME280;68459;50.836;19.138;2023-04-20T12:00:16;98927.53;;;19.02;53.85
74975;BME280;68459;50.836;19.138;2023-04-20T12:03:21;98936.00;;;19.20;53.43
74975;BME280;68459;50.836;19.138;2023-04-20T12:06:26;98922.88;;;19.48;53.49
74975;BME280;68459;50.836;19.138;2023-04-20T12:09:30;98924.47;;;19.84;52.52
74975;BME280;68459;50.836;19.138;2023-04-20T12:12:37;98916.28;;;19.84;51.38
74975;BME280;68459;50.836;19.138;2023-04-20T12:15:44;98915.22;;;19.65;50.86
74975;BME280;68459;50.836;19.138;2023-04-20T12:18:48;98910.88;;;19.49;51.15
74975;BME280;68459;50.836;19.138;2023-04-20T12:21:51;98904.84;;;19.62;51.09
74975;BME280;68459;50.836;19.138;2023-04-20T12:24:55;98906.50;;;19.53;50.83
74975;BME280;68459;50.836;19.138;2023-04-20T12:27:59;98904.56;;;19.43;50.95
74975;BME280;68459;50.836;19.138;2023-04-20T12:31:09;98910.88;;;19.49;50.39
74975;BME280;68459;50.836;19.138;2023-04-20T12:34:12;98893.63;;;19.58;49.91
74975;BME280;68459;50.836;19.138;2023-04-20T12:37:16;98899.56;;;19.96;49.59
74975;BME280;68459;50.836;19.138;2023-04-20T12:40:22;98902.22;;;20.76;48.67
74975;BME280;68459;50.836;19.138;2023-04-20T12:43:25;98886.69;;;22.16;47.55
74975;BME280;68459;50.836;19.138;2023-04-20T12:46:30;98891.41;;;22.77;45.26
74975;BME280;68459;50.836;19.138;2023-04-20T12:49:34;98887.22;;;22.60;45.27
74975;BME280;68459;50.836;19.138;2023-04-20T12:52:38;98891.94;;;22.36;45.76
74975;BME280;68459;50.836;19.138;2023-04-20T12:55:42;98893.19;;;21.72;45.45
74975;BME280;68459;50.836;19.138;2023-04-20T12:58:46;98886.13;;;21.03;46.86
74975;BME280;68459;50.836;19.138;2023-04-20T13:01:51;98890.81;;;20.53;47.35
74975;BME280;68459;50.836;19.138;2023-04-20T13:04:55;98900.91;;;20.04;48.07
74975;BME280;68459;50.836;19.138;2023-04-20T13:07:59;98891.72;;;19.49;49.34
74975;BME280;68459;50.836;19.138;2023-04-20T13:11:03;98893.91;;;19.16;49.91
74975;BME280;68459;50.836;19.138;2023-04-20T13:14:07;98885.31;;;22.80;47.35
74975;BME280;68459;50.836;19.138;2023-04-20T13:17:12;98894.84;;;27.78;40.99
74975;BME280;68459;50.836;19.138;2023-04-20T13:20:16;98894.03;;;31.87;35.35
74975;BME280;68459;50.836;19.138;2023-04-20T13:23:20;98893.41;;;33.88;33.17
74975;BME280;68459;50.836;19.138;2023-04-20T13:26:24;98890.66;;;34.15;31.76
74975;BME280;68459;50.836;19.138;2023-04-20T13:29:28;98884.06;;;32.84;33.16
74975;BME280;68459;50.836;19.138;2023-04-20T13:32:33;98890.06;;;33.41;32.35
74975;BME280;68459;50.836;19.138;2023-04-20T13:35:39;98891.19;;;34.24;30.95
74975;BME280;68459;50.836;19.138;2023-04-20T13:38:44;98887.91;;;32.13;32.94
74975;BME280;68459;50.836;19.138;2023-04-20T13:41:48;98883.53;;;29.88;35.18
74975;BME280;68459;50.836;19.138;2023-04-20T13:44:51;98886.41;;;27.40;38.01
74975;BME280;68459;50.836;19.138;2023-04-20T13:47:56;98884.38;;;25.36;40.20
74975;BME280;68459;50.836;19.138;2023-04-20T13:51:00;98890.72;;;23.55;42.29
74975;BME280;68459;50.836;19.138;2023-04-20T13:54:04;98891.03;;;22.22;44.32
74975;BME280;68459;50.836;19.138;2023-04-20T13:57:08;98881.13;;;21.10;45.62
74975;BME280;68459;50.836;19.138;2023-04-20T14:00:12;98882.78;;;20.13;46.74
74975;BME280;68459;50.836;19.138;2023-04-20T14:03:17;98880.78;;;19.49;47.74
74975;BME280;68459;50.836;19.138;2023-04-20T14:06:22;98882.38;;;19.45;48.26
74975;BME280;68459;50.836;19.138;2023-04-20T14:09:26;98884.84;;;19.67;47.45
74975;BME280;68459;50.836;19.138;2023-04-20T14:12:30;98888.13;;;19.69;47.11
74975;BME280;68459;50.836;19.138;2023-04-20T14:15:35;98886.31;;;21.98;45.80
74975;BME280;68459;50.836;19.138;2023-04-20T14:18:40;98885.91;;;24.34;40.97
74975;BME280;68459;50.836;19.138;2023-04-20T14:21:44;98874.13;;;24.14;40.87
74975;BME280;68459;50.836;19.138;2023-04-20T14:24:48;98882.78;;;23.67;40.93
74975;BME280;68459;50.836;19.138;2023-04-20T14:27:52;98885.25;;;23.17;41.72
74975;BME280;68459;50.836;19.138;2023-04-20T14:30:55;98876.06;;;22.70;42.07
74975;BME280;68459;50.836;19.138;2023-04-20T14:34:00;98877.63;;;25.50;40.47
74975;BME280;68459;50.836;19.138;2023-04-20T14:37:04;98875.00;;;29.27;36.41
74975;BME280;68459;50.836;19.138;2023-04-20T14:40:08;98881.63;;;32.01;32.09
74975;BME280;68459;50.836;19.138;2023-04-20T14:43:12;98873.69;;;33.62;30.12
74975;BME280;68459;50.836;19.138;2023-04-20T14:46:17;98870.75;;;33.16;29.84
74975;BME280;68459;50.836;19.138;2023-04-20T14:49:22;98868.00;;;30.84;31.74
74975;BME280;68459;50.836;19.138;2023-04-20T14:52:26;98870.16;;;28.82;34.45
74975;BME280;68459;50.836;19.138;2023-04-20T14:55:30;98873.72;;;27.39;36.52
74975;BME280;68459;50.836;19.138;2023-04-20T14:58:33;98868.03;;;26.84;37.35
74975;BME280;68459;50.836;19.138;2023-04-20T15:01:38;98867.63;;;26.34;37.59
74975;BME280;68459;50.836;19.138;2023-04-20T15:05:01;98868.97;;;25.43;38.59
74975;BME280;68459;50.836;19.138;2023-04-20T15:08:10;98854.50;;;24.57;39.99
74975;BME280;68459;50.836;19.138;2023-04-20T15:11:13;98866.34;;;23.62;40.56
74975;BME280;68459;50.836;19.138;2023-04-20T15:14:17;98871.69;;;22.69;41.51
74975;BME280;68459;50.836;19.138;2023-04-20T15:17:21;98858.97;;;21.88;42.39
74975;BME280;68459;50.836;19.138;2023-04-20T15:20:26;98864.03;;;21.23;43.56
74975;BME280;68459;50.836;19.138;2023-04-20T15:23:30;98866.59;;;20.76;44.37
74975;BME280;68459;50.836;19.138;2023-04-20T15:26:34;98857.75;;;20.40;44.38
74975;BME280;68459;50.836;19.138;2023-04-20T15:29:37;98861.44;;;20.10;44.69
74975;BME280;68459;50.836;19.138;2023-04-20T15:32:41;98862.34;;;19.85;45.08
74975;BME280;68459;50.836;19.138;2023-04-20T15:35:46;98864.59;;;19.57;44.83
74975;BME280;68459;50.836;19.138;2023-04-20T15:38:51;98861.06;;;19.21;45.50
74975;BME280;68459;50.836;19.138;2023-04-20T15:41:58;98864.59;;;19.57;45.88
74975;BME280;68459;50.836;19.138;2023-04-20T15:45:01;98851.16;;;22.00;42.83
74975;BME280;68459;50.836;19.138;2023-04-20T15:48:05;98860.28;;;24.69;39.46
74975;BME280;68459;50.836;19.138;2023-04-20T15:51:12;98866.22;;;26.79;36.41
74975;BME280;68459;50.836;19.138;2023-04-20T15:54:16;98866.22;;;28.33;34.72
74975;BME280;68459;50.836;19.138;2023-04-20T15:57:24;98870.03;;;29.53;32.92
74975;BME280;68459;50.836;19.138;2023-04-20T16:00:28;98861.09;;;30.29;32.17
74975;BME280;68459;50.836;19.138;2023-04-20T16:03:32;98856.91;;;30.23;32.10
74975;BME280;68459;50.836;19.138;2023-04-20T16:06:37;98859.06;;;27.94;34.44
74975;BME280;68459;50.836;19.138;2023-04-20T16:09:42;98857.81;;;25.79;36.68
74975;BME280;68459;50.836;19.138;2023-04-20T16:12:46;98850.34;;;24.05;39.40
74975;BME280;68459;50.836;19.138;2023-04-20T16:15:49;98849.63;;;22.74;41.19